createdAt,value
2022-11-04T00:00:49.670Z,79.18
2022-11-04T00:03:16.261Z,79.29
2022-11-04T00:05:42.824Z,78.82
2022-11-04T00:08:24.693Z,78.88
2022-11-04T00:11:13.501Z,79.14
2022-11-04T00:13:40.210Z,79.15
2022-11-04T00:16:25.512Z,79.20
2022-11-04T00:18:52.013Z,79.27
2022-11-04T00:21:37.281Z,79.64
2022-11-04T00:24:22.777Z,79.31
2022-11-04T00:27:08.445Z,79.43
2022-11-04T00:29:35.099Z,79.57
2022-11-04T00:32:20.282Z,79.52
2022-11-04T00:34:46.841Z,79.73
2022-11-04T00:37:13.333Z,79.73
2022-11-04T00:39:39.898Z,79.66
2022-11-04T00:42:06.402Z,79.86
2022-11-04T00:44:32.938Z,79.84
2022-11-04T00:46:59.545Z,80.06
2022-11-04T00:49:26.036Z,80.01
2022-11-04T00:51:52.615Z,80.04
2022-11-04T00:54:19.147Z,80.32
2022-11-04T00:56:45.695Z,79.86
2022-11-04T00:59:14.504Z,79.93
2022-11-04T01:01:41.515Z,79.73
2022-11-04T01:04:09.269Z,79.58
2022-11-04T01:06:35.758Z,79.30
2022-11-04T01:09:03.771Z,79.27
2022-11-04T01:11:31.432Z,79.46
2022-11-04T01:13:58.071Z,78.97
2022-11-04T01:16:24.659Z,78.85
2022-11-04T01:18:51.365Z,78.71
2022-11-04T01:21:17.954Z,78.55
2022-11-04T01:23:44.894Z,78.36
2022-11-04T01:26:15.454Z,78.20
2022-11-04T01:28:42.094Z,78.33
2022-11-04T01:31:12.997Z,78.64
2022-11-04T01:33:39.672Z,78.20
2022-11-04T01:36:07.177Z,78.20
2022-11-04T01:38:33.838Z,78.06
2022-11-04T01:41:01.045Z,78.00
2022-11-04T01:43:44.128Z,78.11
2022-11-04T01:46:11.269Z,78.59
2022-11-04T01:48:37.831Z,78.59
2022-11-04T01:51:04.423Z,78.91
2022-11-04T01:53:32.332Z,78.91
2022-11-04T01:55:59.657Z,78.75
2022-11-04T01:58:26.884Z,78.79
2022-11-04T02:00:53.523Z,78.94
2022-11-04T02:03:39.111Z,78.02
2022-11-04T02:06:06.053Z,77.95
2022-11-04T02:08:32.567Z,78.24
2022-11-04T02:11:00.106Z,77.68
2022-11-04T02:13:26.966Z,78.14
2022-11-04T02:15:56.318Z,78.03
2022-11-04T02:18:25.961Z,78.06
2022-11-04T02:21:01.838Z,77.69
2022-11-04T02:23:28.337Z,77.82
2022-11-04T02:26:10.254Z,77.48
2022-11-04T02:28:39.655Z,78.03
2022-11-04T02:31:12.742Z,77.83
2022-11-04T02:33:45.402Z,78.35
2022-11-04T02:36:14.950Z,78.49
2022-11-04T02:39:00.424Z,77.61
2022-11-04T02:41:31.311Z,77.62
2022-11-04T02:43:57.793Z,77.25
2022-11-04T02:46:42.919Z,77.07
2022-11-04T02:49:11.229Z,77.77
2022-11-04T02:51:45.801Z,77.24
2022-11-04T02:54:21.696Z,77.04
2022-11-04T02:56:50.047Z,77.11
2022-11-04T02:59:39.965Z,77.13
2022-11-04T03:02:07.689Z,77.16
2022-11-04T03:04:36.362Z,78.03
2022-11-04T03:07:02.927Z,77.93
2022-11-04T03:09:29.584Z,77.59
2022-11-04T03:11:57.571Z,78.31
2022-11-04T03:14:25.180Z,77.66
2022-11-04T03:16:52.393Z,76.60
2022-11-04T03:19:26.496Z,75.82
2022-11-04T03:22:00.106Z,76.41
2022-11-04T03:24:26.671Z,76.38
2022-11-04T03:27:03.392Z,76.70
2022-11-04T03:30:02.427Z,76.83
2022-11-04T03:32:36.790Z,77.30
2022-11-04T03:35:03.550Z,77.71
2022-11-04T03:37:30.201Z,77.67
2022-11-04T03:39:56.765Z,77.61
2022-11-04T03:42:23.407Z,77.87
2022-11-04T03:44:50.815Z,77.67
2022-11-04T03:47:17.897Z,77.50
2022-11-04T03:49:51.447Z,78.06
2022-11-04T03:52:18.149Z,77.69
2022-11-04T03:54:44.830Z,77.88
2022-11-04T03:57:14.437Z,78.26
2022-11-04T03:59:56.022Z,78.02
2022-11-04T04:02:22.591Z,77.85
2022-11-04T04:04:49.172Z,76.76
2022-11-04T04:07:16.896Z,76.78
2022-11-04T04:10:03.657Z,76.90
2022-11-04T04:12:34.854Z,77.06
2022-11-04T04:15:07.726Z,76.97
2022-11-04T04:17:37.798Z,77.18
2022-11-04T04:20:23.632Z,77.09
2022-11-04T04:22:52.036Z,77.14
2022-11-04T04:25:37.394Z,77.49
2022-11-04T04:28:04.087Z,77.44
2022-11-04T04:30:30.678Z,77.38
2022-11-04T04:33:01.725Z,77.68
2022-11-04T04:35:44.502Z,77.86
2022-11-04T04:38:43.173Z,76.85
2022-11-04T04:41:37.349Z,76.37
2022-11-04T04:44:23.302Z,76.16
2022-11-04T04:46:50.010Z,76.16
2022-11-04T04:49:16.540Z,76.17
2022-11-04T04:51:43.821Z,76.17
2022-11-04T04:54:10.390Z,76.50
2022-11-04T04:56:36.883Z,77.04
2022-11-04T04:59:03.537Z,76.85
2022-11-04T05:01:30.267Z,77.34
2022-11-04T05:03:56.920Z,77.80
2022-11-04T05:06:23.465Z,77.40
2022-11-04T05:08:49.959Z,77.10
2022-11-04T05:11:16.522Z,77.45
2022-11-04T05:13:43.024Z,77.60
2022-11-04T05:16:10.259Z,77.55
2022-11-04T05:18:37.075Z,77.56
2022-11-04T05:21:04.810Z,77.56
2022-11-04T05:23:31.442Z,77.78
2022-11-04T05:25:58.771Z,77.84
2022-11-04T05:28:25.286Z,77.65
2022-11-04T05:30:51.774Z,77.93
2022-11-04T05:33:18.350Z,78.12
2022-11-04T05:35:45.010Z,78.21
2022-11-04T05:38:11.514Z,78.04
2022-11-04T05:40:38.079Z,78.36
2022-11-04T05:43:04.739Z,78.63
2022-11-04T05:45:31.354Z,78.59
2022-11-04T05:47:59.774Z,78.50
2022-11-04T05:50:26.403Z,78.20
2022-11-04T05:52:52.889Z,77.03
2022-11-04T05:55:19.446Z,76.49
2022-11-04T05:57:45.947Z,76.28
2022-11-04T06:00:12.835Z,76.28
2022-11-04T06:02:39.405Z,76.86
2022-11-04T06:05:06.522Z,76.96
2022-11-04T06:07:33.022Z,76.94
2022-11-04T06:10:00.409Z,77.25
2022-11-04T06:12:27.030Z,77.29
2022-11-04T06:14:53.643Z,77.82
2022-11-04T06:17:21.048Z,77.83
2022-11-04T06:19:47.817Z,78.27
2022-11-04T06:22:14.941Z,78.63
2022-11-04T06:24:44.746Z,78.59
2022-11-04T06:27:11.584Z,78.51
2022-11-04T06:29:41.821Z,79.16
2022-11-04T06:32:12.257Z,79.10
2022-11-04T06:34:38.978Z,78.88
2022-11-04T06:37:05.929Z,78.81
2022-11-04T06:39:32.529Z,78.90
2022-11-04T06:42:01.343Z,78.97
2022-11-04T06:44:31.778Z,79.12
2022-11-04T06:46:58.581Z,79.25
2022-11-04T06:49:25.157Z,79.11
2022-11-04T06:51:52.214Z,79.24
2022-11-04T06:54:18.853Z,79.15
2022-11-04T06:56:45.466Z,78.68
2022-11-04T06:59:15.891Z,78.69
2022-11-04T07:01:42.675Z,78.34
2022-11-04T07:04:09.647Z,78.34
2022-11-04T07:06:38.420Z,78.16
2022-11-04T07:09:07.803Z,77.64
2022-11-04T07:11:34.588Z,76.98
2022-11-04T07:14:01.558Z,76.76
2022-11-04T07:16:28.218Z,77.23
2022-11-04T07:18:55.212Z,76.52
2022-11-04T07:21:21.812Z,76.49
2022-11-04T07:23:48.339Z,76.15
2022-11-04T07:26:14.852Z,76.30
2022-11-04T07:28:41.596Z,76.84
2022-11-04T07:31:08.567Z,76.76
2022-11-04T07:33:35.430Z,77.00
2022-11-04T07:36:06.277Z,77.13
2022-11-04T07:38:35.341Z,77.25
2022-11-04T07:41:05.557Z,77.58
2022-11-04T07:43:32.226Z,77.61
2022-11-04T07:46:00.126Z,78.25
2022-11-04T07:48:26.782Z,78.10
2022-11-04T07:50:57.068Z,78.18
2022-11-04T07:53:23.666Z,77.94
2022-11-04T07:55:51.239Z,77.38
2022-11-04T07:58:19.187Z,76.85
2022-11-04T08:00:45.769Z,76.70
2022-11-04T08:03:13.029Z,76.57
2022-11-04T08:05:39.734Z,76.75
2022-11-04T08:08:07.887Z,76.73
2022-11-04T08:10:34.824Z,76.95
2022-11-04T08:13:01.462Z,76.99
2022-11-04T08:15:29.319Z,77.14
2022-11-04T08:17:55.816Z,77.01
2022-11-04T08:20:23.421Z,76.99
2022-11-04T08:22:53.189Z,76.89
2022-11-04T08:25:19.734Z,76.64
2022-11-04T08:27:46.318Z,76.53
2022-11-04T08:30:12.875Z,75.99
2022-11-04T08:32:39.671Z,75.50
2022-11-04T08:35:06.323Z,74.98
2022-11-04T08:37:33.030Z,74.62
2022-11-04T08:39:59.521Z,74.43
2022-11-04T08:42:26.397Z,74.70
2022-11-04T08:44:52.968Z,74.43
2022-11-04T08:47:19.563Z,73.78
2022-11-04T08:49:46.090Z,73.78
2022-11-04T08:52:12.734Z,73.98
2022-11-04T08:54:39.647Z,73.35
2022-11-04T08:57:06.151Z,73.62
2022-11-04T08:59:32.665Z,73.31
2022-11-04T09:01:59.294Z,73.34
2022-11-04T09:04:26.134Z,73.08
2022-11-04T09:06:52.872Z,72.33
2022-11-04T09:09:19.525Z,72.61
2022-11-04T09:11:46.129Z,71.12
2022-11-04T09:14:12.770Z,71.68
2022-11-04T09:16:40.307Z,71.97
2022-11-04T09:19:07.452Z,72.83
2022-11-04T09:21:33.993Z,72.19
2022-11-04T09:24:00.599Z,72.10
2022-11-04T09:26:27.197Z,71.60
2022-11-04T09:28:55.090Z,71.85
2022-11-04T09:31:21.904Z,71.10
2022-11-04T09:33:48.490Z,71.92
2022-11-04T09:36:14.993Z,71.88
2022-11-04T09:38:41.807Z,71.26
2022-11-04T09:41:09.598Z,71.60
2022-11-04T09:43:39.989Z,70.50
2022-11-04T09:46:08.925Z,69.37
2022-11-04T09:48:38.191Z,71.21
2022-11-04T09:51:06.580Z,71.57
2022-11-04T09:53:44.929Z,70.62
2022-11-04T09:56:21.515Z,70.33
2022-11-04T09:58:48.187Z,69.98
2022-11-04T10:01:19.047Z,69.69
2022-11-04T10:03:55.178Z,68.05
2022-11-04T10:06:30.807Z,68.09
2022-11-04T10:09:17.421Z,67.35
2022-11-04T10:11:44.055Z,66.66
2022-11-04T10:14:21.669Z,68.35
2022-11-04T10:16:48.179Z,68.72
2022-11-04T10:19:31.268Z,68.56
2022-11-04T10:22:04.199Z,69.23
2022-11-04T10:24:43.534Z,67.21
2022-11-04T10:27:14.339Z,67.21
2022-11-04T10:29:43.857Z,66.95
2022-11-04T10:32:21.046Z,68.10
2022-11-04T10:34:51.078Z,68.23
2022-11-04T10:37:18.119Z,68.03
2022-11-04T10:39:46.924Z,66.58
2022-11-04T10:42:15.073Z,67.46
2022-11-04T10:44:41.814Z,66.35
2022-11-04T10:47:08.344Z,66.28
2022-11-04T10:50:07.149Z,65.99
2022-11-04T10:52:37.857Z,65.59
2022-11-04T10:55:11.952Z,67.17
2022-11-04T10:57:38.524Z,66.31
2022-11-04T11:00:06.012Z,65.33
2022-11-04T11:02:47.920Z,65.46
2022-11-04T11:05:24.568Z,65.26
2022-11-04T11:07:52.494Z,66.51
2022-11-04T11:10:23.790Z,64.48
2022-11-04T11:12:52.843Z,64.49
2022-11-04T11:15:19.532Z,64.88
2022-11-04T11:17:47.075Z,65.63
2022-11-04T11:20:14.942Z,64.87
2022-11-04T11:22:42.929Z,64.26
2022-11-04T11:25:24.810Z,64.75
2022-11-04T11:27:58.093Z,65.18
2022-11-04T11:30:25.678Z,66.48
2022-11-04T11:32:59.447Z,64.09
2022-11-04T11:35:27.368Z,65.25
2022-11-04T11:37:53.936Z,63.82
2022-11-04T11:40:25.159Z,63.05
2022-11-04T11:42:52.199Z,64.46
2022-11-04T11:45:18.780Z,66.08
2022-11-04T11:47:46.949Z,64.73
2022-11-04T11:50:15.738Z,65.37
2022-11-04T11:52:42.728Z,64.94
2022-11-04T11:55:12.536Z,64.29
2022-11-04T12:00:40.259Z,64.40
2022-11-04T12:03:16.248Z,64.21
2022-11-04T12:11:20.909Z,63.74
2022-11-04T12:13:52.304Z,63.74
2022-11-04T12:16:27.391Z,63.14
2022-11-04T12:19:12.784Z,63.68
2022-11-04T12:21:41.079Z,64.12
2022-11-04T12:24:18.137Z,63.88
2022-11-04T12:26:50.771Z,65.18
2022-11-04T12:29:17.568Z,62.57
2022-11-04T12:32:10.595Z,63.63
2022-11-04T12:34:47.636Z,63.93
2022-11-04T12:37:23.292Z,66.05
2022-11-04T12:40:02.152Z,65.25
2022-11-04T12:42:49.047Z,66.70
2022-11-04T12:45:21.670Z,67.12
2022-11-04T12:47:48.216Z,64.43
2022-11-04T12:50:17.741Z,66.58
2022-11-04T12:52:44.470Z,64.23
2022-11-04T12:55:29.771Z,65.88
2022-11-04T12:58:03.733Z,67.00
2022-11-04T13:00:31.179Z,66.85
2022-11-04T13:03:02.383Z,66.13
2022-11-04T13:05:52.277Z,66.08
2022-11-04T13:08:23.262Z,65.12
2022-11-04T13:10:54.409Z,64.40
2022-11-04T13:13:32.773Z,65.66
2022-11-04T13:16:01.282Z,65.95
2022-11-04T13:18:28.911Z,66.49
2022-11-04T13:20:59.308Z,65.86
2022-11-04T13:23:36.829Z,67.03
2022-11-04T13:26:03.727Z,65.20
2022-11-04T13:28:30.235Z,66.58
2022-11-04T13:31:02.676Z,66.61
2022-11-04T13:33:38.356Z,66.77
2022-11-04T13:36:05.070Z,64.64
2022-11-04T13:38:35.961Z,65.61
2022-11-04T13:41:10.354Z,65.62
2022-11-04T13:43:38.353Z,65.38
2022-11-04T13:46:11.105Z,65.76
2022-11-04T13:48:50.327Z,65.45
2022-11-04T13:51:18.047Z,63.44
2022-11-04T13:53:47.850Z,65.04
2022-11-04T13:56:33.924Z,64.79
2022-11-04T13:59:19.506Z,64.39
2022-11-04T14:01:46.432Z,66.03
2022-11-04T14:04:12.991Z,66.38
2022-11-04T14:06:50.086Z,66.50
2022-11-04T14:09:28.960Z,67.14
2022-11-04T14:12:10.630Z,66.70
2022-11-04T14:14:37.438Z,66.52
2022-11-04T14:17:07.333Z,67.15
2022-11-04T14:19:47.210Z,67.42
2022-11-04T14:22:14.662Z,66.16
2022-11-04T14:24:41.210Z,66.40
2022-11-04T14:27:20.541Z,67.24
2022-11-04T14:29:50.786Z,67.30
2022-11-04T14:32:19.137Z,67.11
2022-11-04T14:34:45.664Z,67.52
2022-11-04T14:37:15.202Z,66.23
2022-11-04T14:39:41.881Z,67.95
2022-11-04T14:42:08.977Z,67.23
2022-11-04T14:44:41.757Z,66.99
2022-11-04T14:47:29.043Z,66.27
2022-11-04T14:49:58.682Z,67.97
2022-11-04T14:52:33.577Z,68.44
2022-11-04T14:55:13.893Z,68.17
2022-11-04T14:57:40.468Z,68.46
2022-11-04T15:00:34.368Z,68.67
2022-11-04T15:03:00.926Z,68.52
2022-11-04T15:05:28.475Z,68.28
2022-11-04T15:07:54.976Z,68.77
2022-11-04T15:10:24.789Z,68.39
2022-11-04T15:12:52.129Z,68.92
2022-11-04T15:15:32.827Z,68.24
2022-11-04T15:18:07.925Z,68.50
2022-11-04T15:20:36.187Z,67.55
2022-11-04T15:23:07.479Z,67.09
2022-11-04T15:25:41.561Z,67.38
2022-11-04T15:28:13.830Z,67.62
2022-11-04T15:30:41.050Z,67.20
2022-11-04T15:33:12.999Z,68.19
2022-11-04T15:35:43.566Z,68.24
2022-11-04T15:38:10.270Z,68.72
2022-11-04T15:40:37.224Z,68.28
2022-11-04T15:43:03.823Z,68.72
2022-11-04T15:45:30.449Z,68.44
2022-11-04T15:48:15.600Z,68.98
2022-11-04T15:50:43.105Z,68.73
2022-11-04T15:53:10.026Z,69.66
2022-11-04T15:55:36.840Z,69.12
2022-11-04T15:58:03.455Z,68.84
2022-11-04T16:00:30.531Z,68.86
2022-11-04T16:02:58.039Z,69.04
2022-11-04T16:05:24.633Z,69.53
2022-11-04T16:07:51.854Z,69.73
2022-11-04T16:10:23.968Z,69.47
2022-11-04T16:12:51.394Z,69.48
2022-11-04T16:15:31.445Z,70.24
2022-11-04T16:17:58.058Z,70.19
2022-11-04T16:20:24.679Z,69.74
2022-11-04T16:22:55.389Z,70.18
2022-11-04T16:25:22.412Z,70.12
2022-11-04T16:27:49.125Z,70.26
2022-11-04T16:30:17.477Z,70.17
2022-11-04T16:32:45.044Z,70.89
2022-11-04T16:35:14.211Z,71.29
2022-11-04T16:37:40.767Z,71.28
2022-11-04T16:40:07.965Z,71.52
2022-11-04T16:42:34.466Z,71.58
2022-11-04T16:45:01.872Z,71.27
2022-11-04T16:47:30.882Z,71.39
2022-11-04T16:50:01.345Z,71.42
2022-11-04T16:52:28.350Z,70.77
2022-11-04T16:54:57.903Z,70.94
2022-11-04T16:57:25.807Z,71.61
2022-11-04T16:59:54.693Z,71.36
2022-11-04T17:02:28.695Z,72.02
2022-11-04T17:04:55.819Z,72.09
2022-11-04T17:07:35.158Z,72.30
2022-11-04T17:10:14.582Z,72.41
2022-11-04T17:12:41.144Z,73.00
2022-11-04T17:15:08.128Z,73.77
2022-11-04T17:17:34.635Z,73.92
2022-11-04T17:20:01.158Z,73.47
2022-11-04T17:22:27.724Z,73.07
2022-11-04T17:24:54.312Z,73.81
2022-11-04T17:27:21.269Z,74.64
2022-11-04T17:29:47.904Z,75.29
2022-11-04T17:32:14.463Z,74.90
2022-11-04T17:34:41.029Z,75.13
2022-11-04T17:37:09.270Z,74.88
2022-11-04T17:39:35.846Z,74.62
2022-11-04T17:42:21.118Z,75.03
2022-11-04T17:44:47.784Z,75.02
2022-11-04T17:47:14.408Z,75.36
2022-11-04T17:49:41.571Z,75.30
2022-11-04T17:52:08.427Z,75.24
2022-11-04T17:54:35.420Z,75.44
2022-11-04T17:57:02.302Z,74.72
2022-11-04T17:59:32.531Z,74.91
2022-11-04T18:02:14.011Z,75.08
2022-11-04T18:04:45.079Z,75.10
2022-11-04T18:07:18.078Z,74.81
2022-11-04T18:09:57.218Z,74.85
2022-11-04T18:12:44.437Z,75.30
2022-11-04T18:15:11.885Z,75.43
2022-11-04T18:17:42.363Z,75.04
2022-11-04T18:20:13.835Z,75.40
2022-11-04T18:22:44.832Z,75.50
2022-11-04T18:25:12.982Z,75.87
2022-11-04T18:27:39.728Z,75.97
2022-11-04T18:30:06.637Z,75.94
2022-11-04T18:32:33.280Z,76.04
2022-11-04T18:34:59.799Z,75.67
2022-11-04T18:37:26.393Z,75.41
2022-11-04T18:39:52.976Z,75.54
2022-11-04T18:42:19.530Z,75.29
2022-11-04T18:44:46.341Z,75.53
2022-11-04T18:47:14.099Z,75.76
2022-11-04T18:49:40.917Z,75.77
2022-11-04T18:52:07.570Z,75.04
2022-11-04T18:54:34.351Z,75.19
2022-11-04T18:57:01.182Z,75.00
2022-11-04T18:59:27.953Z,75.13
2022-11-04T19:01:54.674Z,75.41
2022-11-04T19:04:26.416Z,75.39
2022-11-04T19:07:08.736Z,75.48
2022-11-04T19:09:47.412Z,75.15
2022-11-04T19:12:33.433Z,75.48
2022-11-04T19:15:02.381Z,75.84
2022-11-04T19:17:31.890Z,76.10
2022-11-04T19:19:58.636Z,76.12
2022-11-04T19:22:25.329Z,76.60
2022-11-04T19:24:53.004Z,76.55
2022-11-04T19:27:21.652Z,76.91
2022-11-04T19:29:50.921Z,76.75
2022-11-04T19:32:18.731Z,76.43
2022-11-04T19:34:45.556Z,76.57
2022-11-04T19:37:13.043Z,76.54
2022-11-04T19:39:48.836Z,76.14
2022-11-04T19:42:34.319Z,76.03
2022-11-04T19:45:05.232Z,76.19
2022-11-04T19:47:36.233Z,75.74
2022-11-04T19:50:07.703Z,75.67
2022-11-04T19:52:34.487Z,75.94
2022-11-04T19:55:01.490Z,75.75
2022-11-04T19:57:28.644Z,75.48
2022-11-04T19:59:55.439Z,75.07
2022-11-04T20:02:25.077Z,75.08
2022-11-04T20:04:54.428Z,75.67
2022-11-04T20:07:25.778Z,75.79
2022-11-04T20:09:55.049Z,75.86
2022-11-04T20:12:40.827Z,75.13
2022-11-04T20:15:10.654Z,75.29
2022-11-04T20:17:37.350Z,75.13
2022-11-04T20:20:08.327Z,75.21
2022-11-04T20:22:38.212Z,75.60
2022-11-04T20:25:10.942Z,76.02
2022-11-04T20:27:46.120Z,75.89
2022-11-04T20:30:13.789Z,75.98
2022-11-04T20:32:40.759Z,76.39
2022-11-04T20:35:11.733Z,76.36
2022-11-04T20:37:38.799Z,76.68
2022-11-04T20:40:06.375Z,77.08
2022-11-04T20:42:33.669Z,77.30
2022-11-04T20:45:09.411Z,77.15
2022-11-04T20:47:39.967Z,76.35
2022-11-04T20:50:10.635Z,75.57
2022-11-04T20:52:45.669Z,75.44
2022-11-04T20:55:16.372Z,75.51
2022-11-04T20:57:45.378Z,75.79
2022-11-04T21:00:16.438Z,75.73
2022-11-04T21:02:49.621Z,76.24
2022-11-04T21:05:23.351Z,75.85
2022-11-04T21:07:50.879Z,76.25
2022-11-04T21:10:18.560Z,76.53
2022-11-04T21:12:48.831Z,76.69
2022-11-04T21:15:43.525Z,76.85
2022-11-04T21:18:16.697Z,76.29
2022-11-04T21:20:43.599Z,76.52
2022-11-04T21:23:10.912Z,76.81
2022-11-04T21:25:40.008Z,76.99
2022-11-04T21:28:06.687Z,77.13
2022-11-04T21:30:34.168Z,77.17
2022-11-04T21:33:00.765Z,77.18
2022-11-04T21:35:27.401Z,77.50
2022-11-04T21:37:53.957Z,77.52
2022-11-04T21:40:20.522Z,78.27
2022-11-04T21:42:47.027Z,77.85
2022-11-04T21:45:14.050Z,77.36
2022-11-04T21:47:40.653Z,76.75
2022-11-04T21:50:07.571Z,76.47
2022-11-04T21:52:34.120Z,76.64
2022-11-04T21:55:00.693Z,76.11
2022-11-04T21:57:27.210Z,76.12
2022-11-04T21:59:53.856Z,76.05
2022-11-04T22:02:20.467Z,75.85
2022-11-04T22:04:47.037Z,75.12
2022-11-04T22:07:13.574Z,75.09
2022-11-04T22:09:40.149Z,75.22
2022-11-04T22:12:06.701Z,75.30
2022-11-04T22:14:33.275Z,75.32
2022-11-04T22:17:00.361Z,75.28
2022-11-04T22:19:27.010Z,75.50
2022-11-04T22:21:53.813Z,75.59
2022-11-04T22:24:20.337Z,75.95
2022-11-04T22:26:47.978Z,76.23
2022-11-04T22:29:15.025Z,76.67
2022-11-04T22:31:41.841Z,76.86
2022-11-04T22:34:08.572Z,76.84
2022-11-04T22:36:35.570Z,77.28
2022-11-04T22:39:03.685Z,77.52
2022-11-04T22:41:31.190Z,77.81
2022-11-04T22:43:58.032Z,77.84
2022-11-04T22:46:26.049Z,77.77
2022-11-04T22:48:53.077Z,77.25
2022-11-04T22:51:19.723Z,77.40
2022-11-04T22:53:50.064Z,77.49
2022-11-04T22:56:19.311Z,78.02
2022-11-04T22:58:46.281Z,77.92
2022-11-04T23:01:13.773Z,77.97
2022-11-04T23:03:40.712Z,77.91
2022-11-04T23:06:07.750Z,77.94
2022-11-04T23:08:34.912Z,76.76
2022-11-04T23:11:22.691Z,76.17
2022-11-04T23:14:18.766Z,75.87
2022-11-04T23:17:05.520Z,75.82
2022-11-04T23:19:32.107Z,75.34
2022-11-04T23:22:17.371Z,75.47
2022-11-04T23:25:02.806Z,76.61
2022-11-04T23:27:48.105Z,76.58
2022-11-04T23:30:26.962Z,76.68
2022-11-04T23:33:06.426Z,76.75
2022-11-04T23:35:53.058Z,75.47
2022-11-04T23:38:20.200Z,74.60
2022-11-04T23:41:07.725Z,75.29
2022-11-04T23:43:34.734Z,74.95
2022-11-04T23:46:20.122Z,74.87
2022-11-04T23:49:05.453Z,75.54
2022-11-04T23:51:51.256Z,75.62
2022-11-04T23:54:36.551Z,76.62
2022-11-04T23:57:21.908Z,76.36
